메인 페이지
METAR-TAF:

METAR-TAF

공항 :

Rochester International Airport

로체스터, 미네소타, 미국

위도: 43-54-15N, 경도: 092-29-30W, 고도: 401m

현재 날씨관측

예보는 12분 전, 13:37시(UTC)에 발표되었습니다.
9kt
온도 11°C
습도 100%
기압 1005 hPa
시정: 0.4km
안개

METAR: KRST 071337Z 17009KT 1/4SM R31/1600V2400FT FG VV002 11/11 A2967 RMK AO2 TWR VIS 1/4 T01110106

시각: 08:49 (13:49 UTC)

예보

예보는 2 시간 19분 전, 11:30시(UTC)에 발표되었습니다.
예보 대상 시간: 07일 12시부터 08일 12시까지 (UTC)
8kt
시정: 0.4km
고도 200ft 상공
안개, 시계 내 소나기
07일 1400시부터 (UTC)
남남서8kt
시정: 3.2km
고도 300ft 상공 흐림
박무
07일 1500시부터 (UTC)
남서9kt
시정: 10km
고도 600ft 상공 구름 많음
07일 1800시부터 (UTC)
서북서10kt
시정: 10km
고도 3500ft 상공 구름 많음
08일 0000시부터 (UTC)
북서8kt
시정: 10km
맑음

TAF: KRST 071130Z 0712/0812 09008KT 1/4SM FG VCSH VV002 FM071400 21008KT 2SM BR OVC003 FM071500 22009KT P6SM BKN006 FM071800 29010KT P6SM BKN035 FM080000 32008KT P6SM SKC

4,000개 이상의 공항 관측 자료 및 예보 (METAR 및 TAF 보고).

지도상에서 검색 가능한 기상관측소가 노란 점과 빨간 점으로 표시되어 있습니다.

기상관측소 명을 보려면 표시 위로 마우스를 이동하세요.

날씨 관측과 예보를 보려면 클릭하세요.

지도 변경 : 확대하려면 엑스 표시가 있는 녹색 버튼, 축소하려면 빼기 표시가 있는 녹색 버튼, 다음 페이지의 지도를 보려면 녹색 화살표를 클릭하세요.


METAR-TAF: